createdAt,value
2023-03-02T00:01:45.679Z,1.91
2023-03-02T00:06:42.213Z,2.07
2023-03-02T00:11:39.127Z,1.78
2023-03-02T00:16:35.559Z,1.16
2023-03-02T00:21:32.073Z,1.03
2023-03-02T00:26:28.541Z,1.19
2023-03-02T00:31:25.037Z,1.49
2023-03-02T00:36:23.276Z,1.53
2023-03-02T00:41:21.870Z,1.41
2023-03-02T00:46:21.029Z,1.71
2023-03-02T00:51:18.937Z,1.74
2023-03-02T00:56:15.414Z,1.67
2023-03-02T01:01:12.806Z,1.39
2023-03-02T01:06:16.393Z,1.27
2023-03-02T01:11:18.425Z,1.40
2023-03-02T01:16:14.953Z,1.34
2023-03-02T01:21:14.218Z,1.41
2023-03-02T01:26:11.589Z,1.30
2023-03-02T01:31:08.106Z,0.99
2023-03-02T01:36:04.876Z,0.73
2023-03-02T01:41:01.332Z,0.85
2023-03-02T01:46:07.033Z,0.98
2023-03-02T01:51:05.225Z,1.07
2023-03-02T01:56:03.557Z,1.09
2023-03-02T02:01:00.772Z,1.14
2023-03-02T02:06:08.227Z,1.04
2023-03-02T02:11:06.461Z,1.04
2023-03-02T02:16:03.506Z,1.14
2023-03-02T02:20:59.908Z,1.10
2023-03-02T02:25:59.830Z,1.11
2023-03-02T02:31:10.102Z,1.12
2023-03-02T02:36:12.926Z,1.09
2023-03-02T02:41:18.387Z,1.03
2023-03-02T02:46:15.615Z,1.14
2023-03-02T02:51:20.091Z,1.02
2023-03-02T02:56:17.290Z,1.11
2023-03-02T03:01:25.254Z,0.96
2023-03-02T03:06:38.071Z,1.09
2023-03-02T03:11:36.693Z,1.08
2023-03-02T03:16:34.458Z,0.95
2023-03-02T03:21:31.180Z,1.03
2023-03-02T03:26:27.943Z,0.92
2023-03-02T03:31:26.849Z,1.08
2023-03-02T03:36:23.374Z,0.95
2023-03-02T03:41:20.078Z,0.97
2023-03-02T03:46:16.932Z,0.96
2023-03-02T03:51:14.312Z,0.87
2023-03-02T03:56:10.799Z,0.75
2023-03-02T04:01:07.224Z,0.73
2023-03-02T04:06:03.738Z,0.52
2023-03-02T04:11:00.203Z,0.53
2023-03-02T04:15:56.626Z,0.54
2023-03-02T04:20:53.024Z,0.59
2023-03-02T04:25:49.497Z,0.56
2023-03-02T04:30:45.984Z,0.70
2023-03-02T04:35:42.415Z,0.64
2023-03-02T04:40:39.369Z,0.55
2023-03-02T04:45:35.874Z,0.39
2023-03-02T04:50:32.530Z,0.54
2023-03-02T04:55:29.045Z,0.32
2023-03-02T05:00:25.511Z,0.45
2023-03-02T05:05:24.693Z,0.53
2023-03-02T05:10:22.821Z,0.46
2023-03-02T05:15:19.208Z,0.48
2023-03-02T05:20:15.964Z,0.54
2023-03-02T05:25:12.465Z,0.45
2023-03-02T05:30:09.478Z,0.36
2023-03-02T05:35:06.599Z,0.38
2023-03-02T05:40:03.690Z,0.04
2023-03-02T05:45:00.130Z,0.11
2023-03-02T05:49:56.701Z,0.22
2023-03-02T05:54:53.185Z,0.27
2023-03-02T05:59:50.831Z,0.12
2023-03-02T06:04:47.313Z,0.08
2023-03-02T06:09:43.697Z,0.15
2023-03-02T06:14:40.228Z,0.20
2023-03-02T06:19:36.731Z,0.32
2023-03-02T06:24:33.265Z,0.46
2023-03-02T06:29:29.702Z,0.31
2023-03-02T06:34:26.283Z,0.43
2023-03-02T06:39:23.243Z,0.45
2023-03-02T06:44:19.751Z,0.53
2023-03-02T06:49:16.241Z,0.44
2023-03-02T06:54:12.812Z,0.44
2023-03-02T06:59:09.256Z,0.36
2023-03-02T07:04:05.825Z,0.46
2023-03-02T07:09:02.490Z,0.61
2023-03-02T07:14:02.308Z,0.41
2023-03-02T07:18:58.933Z,0.51
2023-03-02T07:23:55.628Z,0.26
2023-03-02T07:28:52.651Z,0.60
2023-03-02T07:33:49.072Z,0.55
2023-03-02T07:38:45.479Z,0.70
2023-03-02T07:43:41.962Z,0.87
2023-03-02T07:48:38.465Z,0.92
2023-03-02T07:53:34.923Z,0.92
2023-03-02T07:58:31.744Z,1.01
2023-03-02T08:03:28.405Z,0.89
2023-03-02T08:08:24.850Z,1.05
2023-03-02T08:13:21.268Z,1.12
2023-03-02T08:18:17.703Z,1.33
2023-03-02T08:23:14.091Z,1.37
2023-03-02T08:28:10.633Z,1.29
2023-03-02T08:33:07.363Z,1.36
2023-03-02T08:38:03.793Z,1.04
2023-03-02T08:43:00.218Z,1.32
2023-03-02T08:47:56.674Z,1.44
2023-03-02T08:52:53.279Z,1.33
2023-03-02T08:57:49.907Z,1.26
2023-03-02T09:02:46.337Z,0.90
2023-03-02T09:07:42.730Z,1.55
2023-03-02T09:12:40.232Z,1.36
2023-03-02T09:17:36.683Z,1.63
2023-03-02T09:22:35.772Z,1.66
2023-03-02T09:27:32.538Z,1.72
2023-03-02T09:32:29.077Z,1.81
2023-03-02T09:37:27.648Z,1.66
2023-03-02T09:42:27.098Z,2.01
2023-03-02T09:48:03.790Z,1.80
2023-03-02T09:53:29.291Z,2.01
2023-03-02T09:58:31.686Z,2.10
2023-03-02T10:03:36.447Z,1.96
2023-03-02T10:08:37.840Z,1.97
2023-03-02T10:14:04.006Z,2.09
2023-03-02T10:19:17.389Z,1.85
2023-03-02T10:24:35.229Z,1.87
2023-03-02T10:29:59.963Z,1.71
2023-03-02T10:34:57.952Z,2.16
2023-03-02T10:39:55.752Z,2.39
2023-03-02T10:44:59.295Z,2.66
2023-03-02T10:49:57.604Z,2.81
2023-03-02T10:55:14.169Z,2.17
2023-03-02T11:00:11.386Z,2.08
2023-03-02T11:05:33.788Z,2.33
2023-03-02T11:10:50.487Z,2.40
2023-03-02T11:15:50.141Z,2.35
2023-03-02T11:20:52.097Z,1.62
2023-03-02T11:25:58.513Z,2.54
2023-03-02T11:30:59.021Z,2.43
2023-03-02T11:36:25.424Z,2.22
2023-03-02T11:41:31.042Z,2.65
2023-03-02T11:46:33.019Z,2.65
2023-03-02T11:51:35.448Z,2.69
2023-03-02T11:56:36.460Z,2.74
2023-03-02T12:01:36.445Z,2.60
2023-03-02T12:06:40.324Z,2.68
2023-03-02T12:11:40.755Z,2.98
2023-03-02T12:16:40.893Z,3.13
2023-03-02T12:21:42.373Z,2.99
2023-03-02T12:26:38.961Z,2.90
2023-03-02T12:31:47.353Z,3.07
2023-03-02T12:36:44.404Z,3.39
2023-03-02T12:42:09.546Z,3.31
2023-03-02T12:47:16.195Z,3.15
2023-03-02T12:52:34.738Z,3.49
2023-03-02T12:57:31.738Z,3.29
2023-03-02T13:02:33.754Z,3.05
2023-03-02T13:07:37.455Z,3.16
2023-03-02T13:12:35.880Z,3.35
2023-03-02T13:17:32.947Z,3.45
2023-03-02T13:22:29.896Z,3.69
2023-03-02T13:27:28.043Z,3.30
2023-03-02T13:32:26.747Z,3.46
2023-03-02T13:37:43.667Z,3.27
2023-03-02T13:42:40.960Z,3.69
2023-03-02T13:47:37.454Z,3.35
2023-03-02T13:52:34.165Z,3.29
2023-03-02T13:57:32.275Z,3.80
2023-03-02T14:02:30.702Z,3.88
2023-03-02T14:07:27.157Z,4.03
2023-03-02T14:12:30.637Z,4.05
2023-03-02T14:17:27.421Z,4.21
2023-03-02T14:22:26.538Z,4.14
2023-03-02T14:27:26.960Z,4.58
2023-03-02T14:32:23.454Z,4.11
2023-03-02T14:37:25.624Z,4.12
2023-03-02T14:42:23.025Z,3.85
2023-03-02T14:47:19.658Z,3.68
2023-03-02T14:52:30.121Z,3.97
2023-03-02T14:57:28.567Z,4.13
2023-03-02T15:02:26.915Z,4.34
2023-03-02T15:07:25.522Z,4.11
2023-03-02T15:12:21.941Z,4.05
2023-03-02T15:17:18.385Z,4.16
2023-03-02T15:22:14.946Z,4.03
2023-03-02T15:27:11.445Z,3.77
2023-03-02T15:32:07.978Z,3.56
2023-03-02T15:37:04.438Z,3.41
2023-03-02T15:42:01.091Z,3.59
2023-03-02T15:46:59.154Z,3.71
2023-03-02T15:51:59.655Z,3.65
2023-03-02T15:56:56.239Z,3.36
2023-03-02T16:01:53.842Z,3.49
2023-03-02T16:06:50.348Z,3.55
2023-03-02T16:11:49.014Z,3.36
2023-03-02T16:16:46.460Z,3.32
2023-03-02T16:21:42.954Z,3.29
2023-03-02T16:26:39.424Z,3.27
2023-03-02T16:31:37.878Z,3.35
2023-03-02T16:36:36.559Z,3.00
2023-03-02T16:41:33.951Z,2.92
2023-03-02T16:46:32.323Z,2.74
2023-03-02T16:51:28.776Z,2.88
2023-03-02T16:56:25.273Z,2.98
2023-03-02T17:01:21.944Z,2.79
2023-03-02T17:06:20.745Z,2.89
2023-03-02T17:11:18.231Z,3.05
2023-03-02T17:16:16.638Z,2.64
2023-03-02T17:21:14.986Z,2.97
2023-03-02T17:26:11.505Z,2.86
2023-03-02T17:31:08.576Z,2.71
2023-03-02T17:36:07.395Z,2.90
2023-03-02T17:41:05.474Z,2.98
2023-03-02T17:46:20.530Z,2.95
2023-03-02T17:51:17.497Z,3.01
2023-03-02T17:56:15.324Z,3.11
2023-03-02T18:01:12.716Z,3.13
2023-03-02T18:06:09.165Z,3.08
2023-03-02T18:11:06.140Z,3.10
2023-03-02T18:16:02.840Z,3.06
2023-03-02T18:20:59.553Z,3.20
2023-03-02T18:25:56.093Z,3.17
2023-03-02T18:30:52.518Z,3.19
2023-03-02T18:35:49.117Z,3.20
2023-03-02T18:40:45.779Z,3.09
2023-03-02T18:45:42.208Z,3.03
2023-03-02T18:50:39.556Z,3.02
2023-03-02T18:55:40.290Z,3.04
2023-03-02T19:00:37.466Z,3.06
2023-03-02T19:05:33.891Z,3.05
2023-03-02T19:10:30.362Z,3.03
2023-03-02T19:15:26.942Z,2.95
2023-03-02T19:20:23.390Z,2.74
2023-03-02T19:25:20.120Z,2.48
2023-03-02T19:30:22.873Z,2.36
2023-03-02T19:35:24.796Z,2.11
2023-03-02T19:40:24.757Z,1.91
2023-03-02T19:45:28.492Z,1.85
2023-03-02T19:50:26.988Z,1.96
2023-03-02T19:55:24.395Z,1.84
2023-03-02T20:00:21.146Z,1.68
2023-03-02T20:05:17.684Z,1.51
2023-03-02T20:10:34.397Z,1.34
2023-03-02T20:15:33.280Z,1.24
2023-03-02T20:20:30.533Z,1.16
2023-03-02T20:25:28.054Z,1.02
2023-03-02T20:30:37.805Z,0.95
2023-03-02T20:35:39.863Z,0.94
2023-03-02T20:40:37.280Z,1.00
2023-03-02T20:45:34.212Z,0.92
2023-03-02T20:50:33.111Z,0.84
2023-03-02T20:55:29.584Z,0.75
2023-03-02T21:00:28.930Z,0.70
2023-03-02T21:05:26.826Z,0.69
2023-03-02T21:10:28.504Z,0.56
2023-03-02T21:15:27.141Z,0.56
2023-03-02T21:20:25.662Z,0.52
2023-03-02T21:25:22.058Z,0.52
2023-03-02T21:30:30.616Z,0.53
2023-03-02T21:35:27.135Z,0.50
2023-03-02T21:40:31.343Z,0.59
2023-03-02T21:45:29.079Z,0.61
2023-03-02T21:50:28.225Z,0.58
2023-03-02T21:55:26.871Z,0.56
2023-03-02T22:00:32.701Z,0.51
2023-03-02T22:05:29.381Z,0.43
2023-03-02T22:10:46.290Z,0.40
2023-03-02T22:15:46.557Z,0.39
2023-03-02T22:20:45.218Z,0.28
2023-03-02T22:25:45.447Z,0.22
2023-03-02T22:30:41.920Z,0.23
2023-03-02T22:35:38.436Z,0.08
2023-03-02T22:40:35.660Z,0.19
2023-03-02T22:45:32.130Z,0.16
2023-03-02T22:50:30.554Z,0.22
2023-03-02T22:55:39.291Z,0.14
2023-03-02T23:00:40.550Z,0.08
2023-03-02T23:05:37.228Z,0.11
2023-03-02T23:10:33.747Z,0.06
2023-03-02T23:15:34.994Z,0.06
2023-03-02T23:20:33.681Z,0.09
2023-03-02T23:25:30.119Z,0.13
2023-03-02T23:30:26.974Z,0.04
2023-03-02T23:35:23.598Z,-0.01
2023-03-02T23:40:21.533Z,-0.05
2023-03-02T23:45:18.578Z,-0.04
2023-03-02T23:50:15.019Z,-0.06
2023-03-02T23:55:11.638Z,0.06
